sensor_id;sensor_type;location;lat;lon;timestamp;P1;durP1;ratioP1;P2;durP2;ratioP2
17214;SDS011;8723;51.502;6.918;2024-02-16T00:01:58;3.87;;;2.00;;
17214;SDS011;8723;51.502;6.918;2024-02-16T00:06:53;4.30;;;2.35;;
17214;SDS011;8723;51.502;6.918;2024-02-16T00:09:20;3.20;;;2.20;;
17214;SDS011;8723;51.502;6.918;2024-02-16T00:11:49;2.65;;;2.10;;
17214;SDS011;8723;51.502;6.918;2024-02-16T00:14:17;3.83;;;2.15;;
17214;SDS011;8723;51.502;6.918;2024-02-16T00:16:45;3.50;;;2.20;;
17214;SDS011;8723;51.502;6.918;2024-02-16T00:19:13;4.00;;;1.77;;
17214;SDS011;8723;51.502;6.918;2024-02-16T00:21:40;2.97;;;1.90;;
17214;SDS011;8723;51.502;6.918;2024-02-16T00:33:58;4.40;;;2.23;;
17214;SDS011;8723;51.502;6.918;2024-02-16T00:36:25;5.28;;;2.40;;
17214;SDS011;8723;51.502;6.918;2024-02-16T00:38:53;3.80;;;2.38;;
17214;SDS011;8723;51.502;6.918;2024-02-16T00:46:14;4.18;;;2.30;;
17214;SDS011;8723;51.502;6.918;2024-02-16T00:48:41;4.15;;;2.53;;
17214;SDS011;8723;51.502;6.918;2024-02-16T00:58:31;4.87;;;2.40;;
17214;SDS011;8723;51.502;6.918;2024-02-16T01:00:58;3.38;;;2.40;;
17214;SDS011;8723;51.502;6.918;2024-02-16T01:03:25;2.97;;;2.67;;
17214;SDS011;8723;51.502;6.918;2024-02-16T01:05:53;2.90;;;2.20;;
17214;SDS011;8723;51.502;6.918;2024-02-16T01:08:20;4.85;;;2.50;;
17214;SDS011;8723;51.502;6.918;2024-02-16T01:13:16;3.40;;;2.60;;
17214;SDS011;8723;51.502;6.918;2024-02-16T01:15:45;3.45;;;2.60;;
17214;SDS011;8723;51.502;6.918;2024-02-16T01:18:12;2.70;;;2.13;;
17214;SDS011;8723;51.502;6.918;2024-02-16T01:28:00;2.73;;;2.20;;
17214;SDS011;8723;51.502;6.918;2024-02-16T01:32:57;4.78;;;2.88;;
17214;SDS011;8723;51.502;6.918;2024-02-16T01:35:24;2.57;;;2.20;;
17214;SDS011;8723;51.502;6.918;2024-02-16T01:37:51;2.83;;;2.23;;
17214;SDS011;8723;51.502;6.918;2024-02-16T03:16:21;2.60;;;2.40;;
17214;SDS011;8723;51.502;6.918;2024-02-16T11:03:48;7.17;;;3.87;;
17214;SDS011;8723;51.502;6.918;2024-02-16T11:06:16;6.47;;;3.77;;
17214;SDS011;8723;51.502;6.918;2024-02-16T11:08:43;8.63;;;4.07;;
17214;SDS011;8723;51.502;6.918;2024-02-16T11:11:10;4.47;;;3.47;;
17214;SDS011;8723;51.502;6.918;2024-02-16T11:13:38;6.93;;;4.13;;
17214;SDS011;8723;51.502;6.918;2024-02-16T11:16:06;4.20;;;2.97;;
17214;SDS011;8723;51.502;6.918;2024-02-16T11:18:36;5.77;;;4.00;;
17214;SDS011;8723;51.502;6.918;2024-02-16T11:21:05;5.33;;;4.03;;
17214;SDS011;8723;51.502;6.918;2024-02-16T11:23:34;7.63;;;4.13;;
17214;SDS011;8723;51.502;6.918;2024-02-16T11:26:02;7.53;;;3.93;;
17214;SDS011;8723;51.502;6.918;2024-02-16T11:28:31;5.50;;;3.70;;
17214;SDS011;8723;51.502;6.918;2024-02-16T11:30:59;6.53;;;3.43;;
17214;SDS011;8723;51.502;6.918;2024-02-16T11:33:26;7.97;;;4.20;;
17214;SDS011;8723;51.502;6.918;2024-02-16T11:35:54;4.80;;;4.10;;
17214;SDS011;8723;51.502;6.918;2024-02-16T11:38:23;8.67;;;4.60;;
17214;SDS011;8723;51.502;6.918;2024-02-16T11:40:55;6.80;;;4.30;;
17214;SDS011;8723;51.502;6.918;2024-02-16T11:43:23;8.30;;;4.37;;
17214;SDS011;8723;51.502;6.918;2024-02-16T11:45:50;5.13;;;4.47;;
17214;SDS011;8723;51.502;6.918;2024-02-16T11:48:20;7.57;;;4.33;;
17214;SDS011;8723;51.502;6.918;2024-02-16T11:50:48;6.60;;;4.90;;
17214;SDS011;8723;51.502;6.918;2024-02-16T11:53:16;8.43;;;4.90;;
17214;SDS011;8723;51.502;6.918;2024-02-16T11:55:49;8.43;;;5.10;;
17214;SDS011;8723;51.502;6.918;2024-02-16T11:58:17;7.73;;;5.07;;
17214;SDS011;8723;51.502;6.918;2024-02-16T12:00:47;7.40;;;4.80;;
17214;SDS011;8723;51.502;6.918;2024-02-16T12:03:18;9.90;;;5.00;;
17214;SDS011;8723;51.502;6.918;2024-02-16T12:05:50;6.63;;;4.57;;
17214;SDS011;8723;51.502;6.918;2024-02-16T12:08:17;7.50;;;5.43;;
17214;SDS011;8723;51.502;6.918;2024-02-16T12:10:46;7.77;;;4.97;;
17214;SDS011;8723;51.502;6.918;2024-02-16T12:13:15;8.97;;;4.87;;
17214;SDS011;8723;51.502;6.918;2024-02-16T12:15:43;8.13;;;5.27;;
17214;SDS011;8723;51.502;6.918;2024-02-16T12:18:18;6.30;;;4.80;;
17214;SDS011;8723;51.502;6.918;2024-02-16T12:20:55;4.63;;;4.23;;
17214;SDS011;8723;51.502;6.918;2024-02-16T12:23:23;8.07;;;5.13;;
17214;SDS011;8723;51.502;6.918;2024-02-16T12:25:50;9.47;;;5.57;;
17214;SDS011;8723;51.502;6.918;2024-02-16T12:28:19;8.37;;;5.60;;
17214;SDS011;8723;51.502;6.918;2024-02-16T12:30:47;13.00;;;6.17;;
17214;SDS011;8723;51.502;6.918;2024-02-16T12:33:14;12.67;;;6.63;;
17214;SDS011;8723;51.502;6.918;2024-02-16T12:35:41;10.40;;;6.30;;
17214;SDS011;8723;51.502;6.918;2024-02-16T12:38:07;13.10;;;6.60;;
17214;SDS011;8723;51.502;6.918;2024-02-16T12:40:35;15.67;;;6.67;;
17214;SDS011;8723;51.502;6.918;2024-02-16T12:43:02;10.90;;;5.73;;
17214;SDS011;8723;51.502;6.918;2024-02-16T12:45:31;10.70;;;6.13;;
17214;SDS011;8723;51.502;6.918;2024-02-16T12:47:58;11.07;;;6.80;;
17214;SDS011;8723;51.502;6.918;2024-02-16T12:50:25;10.83;;;7.17;;
17214;SDS011;8723;51.502;6.918;2024-02-16T12:52:53;12.10;;;6.93;;
17214;SDS011;8723;51.502;6.918;2024-02-16T12:55:20;13.00;;;7.57;;
17214;SDS011;8723;51.502;6.918;2024-02-16T12:57:48;9.70;;;7.10;;
17214;SDS011;8723;51.502;6.918;2024-02-16T13:00:16;9.53;;;6.83;;
17214;SDS011;8723;51.502;6.918;2024-02-16T13:02:45;10.83;;;6.80;;
17214;SDS011;8723;51.502;6.918;2024-02-16T13:05:12;8.57;;;6.17;;
17214;SDS011;8723;51.502;6.918;2024-02-16T13:07:40;14.40;;;7.47;;
17214;SDS011;8723;51.502;6.918;2024-02-16T13:10:07;11.23;;;6.50;;
17214;SDS011;8723;51.502;6.918;2024-02-16T13:12:34;12.60;;;6.90;;
17214;SDS011;8723;51.502;6.918;2024-02-16T13:15:02;10.70;;;7.87;;
17214;SDS011;8723;51.502;6.918;2024-02-16T13:17:30;9.13;;;6.70;;
17214;SDS011;8723;51.502;6.918;2024-02-16T13:19:59;11.30;;;7.93;;
17214;SDS011;8723;51.502;6.918;2024-02-16T13:22:32;12.13;;;8.07;;
17214;SDS011;8723;51.502;6.918;2024-02-16T13:24:59;9.30;;;7.50;;
17214;SDS011;8723;51.502;6.918;2024-02-16T13:27:26;11.63;;;7.87;;
17214;SDS011;8723;51.502;6.918;2024-02-16T13:29:53;11.80;;;8.57;;
17214;SDS011;8723;51.502;6.918;2024-02-16T13:32:21;13.53;;;8.33;;
17214;SDS011;8723;51.502;6.918;2024-02-16T13:34:48;13.80;;;8.80;;
17214;SDS011;8723;51.502;6.918;2024-02-16T13:37:17;11.87;;;9.13;;
17214;SDS011;8723;51.502;6.918;2024-02-16T13:39:44;11.37;;;9.33;;
17214;SDS011;8723;51.502;6.918;2024-02-16T13:42:11;16.60;;;11.00;;
17214;SDS011;8723;51.502;6.918;2024-02-16T13:44:39;13.47;;;10.20;;
17214;SDS011;8723;51.502;6.918;2024-02-16T13:47:07;13.37;;;10.30;;
17214;SDS011;8723;51.502;6.918;2024-02-16T13:49:34;12.33;;;9.90;;
17214;SDS011;8723;51.502;6.918;2024-02-16T13:52:01;12.57;;;9.77;;
17214;SDS011;8723;51.502;6.918;2024-02-16T13:54:30;13.30;;;9.87;;
17214;SDS011;8723;51.502;6.918;2024-02-16T13:56:57;12.67;;;10.07;;
17214;SDS011;8723;51.502;6.918;2024-02-16T13:59:24;14.23;;;10.77;;
17214;SDS011;8723;51.502;6.918;2024-02-16T14:01:51;14.73;;;10.57;;
17214;SDS011;8723;51.502;6.918;2024-02-16T14:04:19;14.23;;;10.77;;
17214;SDS011;8723;51.502;6.918;2024-02-16T14:06:47;12.67;;;10.47;;
17214;SDS011;8723;51.502;6.918;2024-02-16T14:09:14;15.57;;;11.03;;
17214;SDS011;8723;51.502;6.918;2024-02-16T14:11:44;16.73;;;12.00;;
17214;SDS011;8723;51.502;6.918;2024-02-16T14:14:11;11.67;;;10.50;;
17214;SDS011;8723;51.502;6.918;2024-02-16T14:16:39;17.80;;;11.27;;
17214;SDS011;8723;51.502;6.918;2024-02-16T14:19:06;12.77;;;11.47;;
17214;SDS011;8723;51.502;6.918;2024-02-16T14:21:33;13.67;;;11.13;;
17214;SDS011;8723;51.502;6.918;2024-02-16T14:24:01;12.87;;;11.03;;
17214;SDS011;8723;51.502;6.918;2024-02-16T14:26:28;11.90;;;10.70;;
17214;SDS011;8723;51.502;6.918;2024-02-16T14:28:57;13.50;;;12.10;;
17214;SDS011;8723;51.502;6.918;2024-02-16T14:31:24;11.93;;;10.73;;
17214;SDS011;8723;51.502;6.918;2024-02-16T14:33:51;16.73;;;12.43;;
17214;SDS011;8723;51.502;6.918;2024-02-16T14:36:18;17.90;;;11.97;;
17214;SDS011;8723;51.502;6.918;2024-02-16T14:38:46;14.57;;;13.27;;
17214;SDS011;8723;51.502;6.918;2024-02-16T14:41:13;14.60;;;13.27;;
17214;SDS011;8723;51.502;6.918;2024-02-16T14:43:41;17.13;;;15.30;;
17214;SDS011;8723;51.502;6.918;2024-02-16T14:46:10;17.23;;;15.43;;
17214;SDS011;8723;51.502;6.918;2024-02-16T14:48:39;18.60;;;16.43;;
17214;SDS011;8723;51.502;6.918;2024-02-16T14:51:06;18.40;;;16.53;;
17214;SDS011;8723;51.502;6.918;2024-02-16T14:53:33;19.13;;;17.23;;
17214;SDS011;8723;51.502;6.918;2024-02-16T14:56:00;20.50;;;18.33;;
17214;SDS011;8723;51.502;6.918;2024-02-16T14:58:28;15.47;;;13.87;;
17214;SDS011;8723;51.502;6.918;2024-02-16T15:00:55;10.63;;;9.67;;
17214;SDS011;8723;51.502;6.918;2024-02-16T15:03:25;9.97;;;9.07;;
17214;SDS011;8723;51.502;6.918;2024-02-16T15:05:55;9.73;;;8.93;;
17214;SDS011;8723;51.502;6.918;2024-02-16T15:08:22;8.50;;;7.90;;
17214;SDS011;8723;51.502;6.918;2024-02-16T15:10:50;9.80;;;8.90;;
17214;SDS011;8723;51.502;6.918;2024-02-16T15:13:17;9.57;;;8.83;;
17214;SDS011;8723;51.502;6.918;2024-02-16T15:15:45;9.23;;;8.43;;
17214;SDS011;8723;51.502;6.918;2024-02-16T15:18:12;8.97;;;8.20;;
17214;SDS011;8723;51.502;6.918;2024-02-16T15:20:40;9.40;;;8.60;;
17214;SDS011;8723;51.502;6.918;2024-02-16T15:23:08;9.10;;;8.30;;
17214;SDS011;8723;51.502;6.918;2024-02-16T15:25:35;8.90;;;8.00;;
17214;SDS011;8723;51.502;6.918;2024-02-16T15:28:02;8.53;;;7.63;;
17214;SDS011;8723;51.502;6.918;2024-02-16T15:30:30;9.43;;;8.53;;
17214;SDS011;8723;51.502;6.918;2024-02-16T15:32:57;9.93;;;8.93;;
17214;SDS011;8723;51.502;6.918;2024-02-16T15:35:24;8.87;;;8.07;;
17214;SDS011;8723;51.502;6.918;2024-02-16T15:37:53;10.13;;;9.17;;
17214;SDS011;8723;51.502;6.918;2024-02-16T15:40:20;9.07;;;8.37;;
17214;SDS011;8723;51.502;6.918;2024-02-16T15:42:58;10.13;;;9.23;;
17214;SDS011;8723;51.502;6.918;2024-02-16T15:45:26;10.13;;;9.07;;
17214;SDS011;8723;51.502;6.918;2024-02-16T15:47:53;8.57;;;7.90;;
17214;SDS011;8723;51.502;6.918;2024-02-16T15:50:20;10.13;;;9.17;;
17214;SDS011;8723;51.502;6.918;2024-02-16T15:52:48;10.40;;;9.53;;
17214;SDS011;8723;51.502;6.918;2024-02-16T15:55:17;10.93;;;10.03;;
17214;SDS011;8723;51.502;6.918;2024-02-16T15:57:44;9.77;;;9.07;;
17214;SDS011;8723;51.502;6.918;2024-02-16T16:00:12;10.47;;;9.57;;
17214;SDS011;8723;51.502;6.918;2024-02-16T16:02:39;9.57;;;8.87;;
17214;SDS011;8723;51.502;6.918;2024-02-16T16:05:07;9.47;;;8.57;;
17214;SDS011;8723;51.502;6.918;2024-02-16T16:07:34;10.20;;;9.37;;
17214;SDS011;8723;51.502;6.918;2024-02-16T16:10:03;10.90;;;10.00;;
17214;SDS011;8723;51.502;6.918;2024-02-16T16:12:31;9.90;;;9.03;;
17214;SDS011;8723;51.502;6.918;2024-02-16T16:14:59;10.20;;;9.40;;
17214;SDS011;8723;51.502;6.918;2024-02-16T16:17:26;9.57;;;8.87;;
17214;SDS011;8723;51.502;6.918;2024-02-16T16:19:55;10.03;;;9.23;;
17214;SDS011;8723;51.502;6.918;2024-02-16T16:22:23;10.03;;;9.13;;
17214;SDS011;8723;51.502;6.918;2024-02-16T16:24:50;10.17;;;9.27;;
17214;SDS011;8723;51.502;6.918;2024-02-16T16:27:18;10.90;;;10.00;;
17214;SDS011;8723;51.502;6.918;2024-02-16T16:29:47;10.60;;;9.73;;
17214;SDS011;8723;51.502;6.918;2024-02-16T16:32:14;11.30;;;10.30;;
17214;SDS011;8723;51.502;6.918;2024-02-16T16:34:41;11.20;;;10.30;;
17214;SDS011;8723;51.502;6.918;2024-02-16T16:37:10;10.60;;;9.77;;
17214;SDS011;8723;51.502;6.918;2024-02-16T16:39:37;11.40;;;10.47;;
17214;SDS011;8723;51.502;6.918;2024-02-16T16:42:05;12.10;;;11.07;;
17214;SDS011;8723;51.502;6.918;2024-02-16T16:44:33;12.00;;;11.10;;
17214;SDS011;8723;51.502;6.918;2024-02-16T16:47:01;11.17;;;10.27;;
17214;SDS011;8723;51.502;6.918;2024-02-16T16:49:29;11.87;;;10.97;;
17214;SDS011;8723;51.502;6.918;2024-02-16T16:51:56;9.87;;;9.07;;
17214;SDS011;8723;51.502;6.918;2024-02-16T16:54:24;10.87;;;10.07;;
17214;SDS011;8723;51.502;6.918;2024-02-16T16:56:51;10.73;;;9.93;;
17214;SDS011;8723;51.502;6.918;2024-02-16T16:59:18;11.07;;;10.10;;
17214;SDS011;8723;51.502;6.918;2024-02-16T17:01:45;10.50;;;9.60;;
17214;SDS011;8723;51.502;6.918;2024-02-16T17:04:14;10.53;;;9.63;;
17214;SDS011;8723;51.502;6.918;2024-02-16T17:06:41;9.70;;;8.80;;
17214;SDS011;8723;51.502;6.918;2024-02-16T17:09:08;9.87;;;9.07;;
17214;SDS011;8723;51.502;6.918;2024-02-16T17:11:35;9.90;;;9.10;;
17214;SDS011;8723;51.502;6.918;2024-02-16T17:14:03;9.63;;;8.63;;
17214;SDS011;8723;51.502;6.918;2024-02-16T17:16:30;10.27;;;9.33;;
17214;SDS011;8723;51.502;6.918;2024-02-16T17:18:57;10.70;;;9.77;;
17214;SDS011;8723;51.502;6.918;2024-02-16T17:21:26;10.53;;;9.70;;
17214;SDS011;8723;51.502;6.918;2024-02-16T17:23:54;11.63;;;10.60;;
17214;SDS011;8723;51.502;6.918;2024-02-16T17:26:23;11.77;;;10.77;;
17214;SDS011;8723;51.502;6.918;2024-02-16T17:28:50;11.90;;;11.00;;
17214;SDS011;8723;51.502;6.918;2024-02-16T17:31:18;13.10;;;11.93;;
17214;SDS011;8723;51.502;6.918;2024-02-16T17:33:45;10.23;;;9.43;;
17214;SDS011;8723;51.502;6.918;2024-02-16T17:36:13;11.07;;;10.07;;
17214;SDS011;8723;51.502;6.918;2024-02-16T17:38:44;10.07;;;9.27;;
17214;SDS011;8723;51.502;6.918;2024-02-16T17:41:12;11.63;;;10.73;;
17214;SDS011;8723;51.502;6.918;2024-02-16T17:43:39;10.20;;;9.30;;
17214;SDS011;8723;51.502;6.918;2024-02-16T17:46:10;9.83;;;9.13;;
17214;SDS011;8723;51.502;6.918;2024-02-16T17:48:37;10.07;;;9.30;;
17214;SDS011;8723;51.502;6.918;2024-02-16T17:51:04;10.10;;;9.30;;
17214;SDS011;8723;51.502;6.918;2024-02-16T17:53:32;8.53;;;7.93;;
17214;SDS011;8723;51.502;6.918;2024-02-16T17:56:01;9.60;;;8.80;;
17214;SDS011;8723;51.502;6.918;2024-02-16T17:58:28;10.03;;;9.23;;
17214;SDS011;8723;51.502;6.918;2024-02-16T18:00:59;11.13;;;10.23;;
17214;SDS011;8723;51.502;6.918;2024-02-16T18:03:26;12.10;;;11.10;;
17214;SDS011;8723;51.502;6.918;2024-02-16T18:05:54;11.88;;;10.98;;
17214;SDS011;8723;51.502;6.918;2024-02-16T18:08:23;12.60;;;11.70;;
17214;SDS011;8723;51.502;6.918;2024-02-16T18:10:50;13.60;;;12.50;;
17214;SDS011;8723;51.502;6.918;2024-02-16T18:13:20;14.48;;;13.38;;
17214;SDS011;8723;51.502;6.918;2024-02-16T18:15:47;12.40;;;11.45;;
17214;SDS011;8723;51.502;6.918;2024-02-16T18:18:14;12.60;;;11.50;;
17214;SDS011;8723;51.502;6.918;2024-02-16T18:20:42;11.57;;;10.68;;
17214;SDS011;8723;51.502;6.918;2024-02-16T18:23:09;12.85;;;11.88;;
17214;SDS011;8723;51.502;6.918;2024-02-16T18:25:37;12.30;;;11.40;;
17214;SDS011;8723;51.502;6.918;2024-02-16T18:28:04;12.90;;;11.90;;
17214;SDS011;8723;51.502;6.918;2024-02-16T18:30:33;12.48;;;11.48;;
17214;SDS011;8723;51.502;6.918;2024-02-16T18:33:01;13.35;;;12.35;;
17214;SDS011;8723;51.502;6.918;2024-02-16T18:35:28;13.07;;;12.07;;
17214;SDS011;8723;51.502;6.918;2024-02-16T18:37:55;12.02;;;11.15;;
17214;SDS011;8723;51.502;6.918;2024-02-16T18:40:22;13.63;;;12.63;;
17214;SDS011;8723;51.502;6.918;2024-02-16T18:42:51;12.77;;;11.68;;
17214;SDS011;8723;51.502;6.918;2024-02-16T18:45:19;11.63;;;10.73;;
17214;SDS011;8723;51.502;6.918;2024-02-16T18:47:49;12.68;;;11.68;;
17214;SDS011;8723;51.502;6.918;2024-02-16T18:50:16;13.00;;;12.00;;
17214;SDS011;8723;51.502;6.918;2024-02-16T18:52:43;12.60;;;11.60;;
17214;SDS011;8723;51.502;6.918;2024-02-16T18:55:11;12.25;;;11.25;;
17214;SDS011;8723;51.502;6.918;2024-02-16T18:57:38;11.43;;;10.60;;
17214;SDS011;8723;51.502;6.918;2024-02-16T19:00:05;12.50;;;11.50;;
17214;SDS011;8723;51.502;6.918;2024-02-16T19:02:33;13.33;;;12.13;;
17214;SDS011;8723;51.502;6.918;2024-02-16T19:05:05;12.38;;;11.38;;
17214;SDS011;8723;51.502;6.918;2024-02-16T19:07:33;10.70;;;9.80;;
17214;SDS011;8723;51.502;6.918;2024-02-16T19:10:00;10.10;;;9.30;;
17214;SDS011;8723;51.502;6.918;2024-02-16T19:12:28;9.80;;;9.00;;
17214;SDS011;8723;51.502;6.918;2024-02-16T19:14:55;10.18;;;9.27;;
17214;SDS011;8723;51.502;6.918;2024-02-16T19:17:24;10.38;;;9.57;;
17214;SDS011;8723;51.502;6.918;2024-02-16T19:19:52;10.13;;;9.38;;
17214;SDS011;8723;51.502;6.918;2024-02-16T19:22:21;9.88;;;9.10;;
17214;SDS011;8723;51.502;6.918;2024-02-16T19:24:49;9.77;;;8.98;;
17214;SDS011;8723;51.502;6.918;2024-02-16T19:27:16;9.87;;;9.07;;
17214;SDS011;8723;51.502;6.918;2024-02-16T19:29:45;10.60;;;9.65;;
17214;SDS011;8723;51.502;6.918;2024-02-16T19:32:13;11.18;;;10.27;;
17214;SDS011;8723;51.502;6.918;2024-02-16T19:34:40;11.13;;;10.23;;
17214;SDS011;8723;51.502;6.918;2024-02-16T19:37:07;10.37;;;9.50;;
17214;SDS011;8723;51.502;6.918;2024-02-16T19:39:36;12.27;;;11.27;;
17214;SDS011;8723;51.502;6.918;2024-02-16T19:42:03;11.45;;;10.50;;
17214;SDS011;8723;51.502;6.918;2024-02-16T19:44:31;11.80;;;10.90;;
17214;SDS011;8723;51.502;6.918;2024-02-16T19:47:00;14.93;;;13.83;;
17214;SDS011;8723;51.502;6.918;2024-02-16T19:49:30;15.63;;;14.33;;
17214;SDS011;8723;51.502;6.918;2024-02-16T19:51:58;15.77;;;14.48;;
17214;SDS011;8723;51.502;6.918;2024-02-16T19:54:25;18.50;;;17.05;;
17214;SDS011;8723;51.502;6.918;2024-02-16T19:56:53;19.73;;;17.98;;
17214;SDS011;8723;51.502;6.918;2024-02-16T19:59:20;21.92;;;20.13;;
17214;SDS011;8723;51.502;6.918;2024-02-16T20:01:48;22.15;;;20.35;;
17214;SDS011;8723;51.502;6.918;2024-02-16T20:04:16;25.73;;;23.53;;
17214;SDS011;8723;51.502;6.918;2024-02-16T20:06:44;27.25;;;25.08;;
17214;SDS011;8723;51.502;6.918;2024-02-16T20:09:13;29.13;;;26.73;;
17214;SDS011;8723;51.502;6.918;2024-02-16T20:11:40;30.88;;;28.30;;
17214;SDS011;8723;51.502;6.918;2024-02-16T20:14:09;31.97;;;29.37;;
17214;SDS011;8723;51.502;6.918;2024-02-16T20:16:36;29.98;;;27.45;;
17214;SDS011;8723;51.502;6.918;2024-02-16T20:19:04;34.88;;;31.85;;
17214;SDS011;8723;51.502;6.918;2024-02-16T20:21:32;31.88;;;29.20;;
17214;SDS011;8723;51.502;6.918;2024-02-16T20:24:00;38.65;;;35.35;;
17214;SDS011;8723;51.502;6.918;2024-02-16T20:26:28;37.00;;;33.88;;
17214;SDS011;8723;51.502;6.918;2024-02-16T20:28:56;35.47;;;32.47;;
17214;SDS011;8723;51.502;6.918;2024-02-16T20:31:26;35.80;;;32.75;;
17214;SDS011;8723;51.502;6.918;2024-02-16T20:33:53;34.22;;;31.33;;
17214;SDS011;8723;51.502;6.918;2024-02-16T20:36:20;35.80;;;32.72;;
17214;SDS011;8723;51.502;6.918;2024-02-16T20:38:47;34.00;;;31.13;;
17214;SDS011;8723;51.502;6.918;2024-02-16T20:41:15;32.38;;;29.67;;
17214;SDS011;8723;51.502;6.918;2024-02-16T20:43:42;34.10;;;31.20;;
17214;SDS011;8723;51.502;6.918;2024-02-16T20:46:09;34.00;;;30.90;;
17214;SDS011;8723;51.502;6.918;2024-02-16T20:48:40;36.55;;;33.35;;
17214;SDS011;8723;51.502;6.918;2024-02-16T20:51:07;35.17;;;31.97;;
17214;SDS011;8723;51.502;6.918;2024-02-16T20:53:34;36.47;;;33.30;;
17214;SDS011;8723;51.502;6.918;2024-02-16T20:56:02;33.42;;;30.48;;
17214;SDS011;8723;51.502;6.918;2024-02-16T20:58:29;32.63;;;29.92;;
17214;SDS011;8723;51.502;6.918;2024-02-16T21:00:56;34.83;;;31.83;;
17214;SDS011;8723;51.502;6.918;2024-02-16T21:03:23;40.50;;;36.60;;
17214;SDS011;8723;51.502;6.918;2024-02-16T21:05:52;40.83;;;36.92;;
17214;SDS011;8723;51.502;6.918;2024-02-16T21:08:19;36.05;;;32.75;;
17214;SDS011;8723;51.502;6.918;2024-02-16T21:10:47;36.63;;;33.55;;
17214;SDS011;8723;51.502;6.918;2024-02-16T21:13:14;35.80;;;32.60;;
17214;SDS011;8723;51.502;6.918;2024-02-16T21:15:41;37.47;;;34.28;;
17214;SDS011;8723;51.502;6.918;2024-02-16T21:18:10;37.00;;;33.90;;
17214;SDS011;8723;51.502;6.918;2024-02-16T21:20:39;37.08;;;33.95;;
17214;SDS011;8723;51.502;6.918;2024-02-16T21:23:08;38.00;;;34.70;;
17214;SDS011;8723;51.502;6.918;2024-02-16T21:25:36;37.83;;;34.55;;
17214;SDS011;8723;51.502;6.918;2024-02-16T21:28:03;35.55;;;32.45;;
17214;SDS011;8723;51.502;6.918;2024-02-16T21:30:30;36.55;;;33.25;;
17214;SDS011;8723;51.502;6.918;2024-02-16T21:32:57;37.92;;;34.63;;
17214;SDS011;8723;51.502;6.918;2024-02-16T21:35:28;34.67;;;31.63;;
17214;SDS011;8723;51.502;6.918;2024-02-16T21:37:58;36.45;;;33.33;;
17214;SDS011;8723;51.502;6.918;2024-02-16T21:40:27;39.25;;;35.72;;
17214;SDS011;8723;51.502;6.918;2024-02-16T21:42:58;37.83;;;34.53;;
17214;SDS011;8723;51.502;6.918;2024-02-16T21:45:25;37.72;;;34.38;;
17214;SDS011;8723;51.502;6.918;2024-02-16T21:47:52;40.55;;;36.85;;
17214;SDS011;8723;51.502;6.918;2024-02-16T21:50:20;38.30;;;34.85;;
17214;SDS011;8723;51.502;6.918;2024-02-16T21:52:47;39.50;;;35.85;;
17214;SDS011;8723;51.502;6.918;2024-02-16T21:55:14;44.20;;;40.08;;
17214;SDS011;8723;51.502;6.918;2024-02-16T21:57:43;40.83;;;36.97;;
17214;SDS011;8723;51.502;6.918;2024-02-16T22:00:10;43.33;;;39.13;;
17214;SDS011;8723;51.502;6.918;2024-02-16T22:02:38;44.90;;;40.58;;
17214;SDS011;8723;51.502;6.918;2024-02-16T22:05:05;43.00;;;38.92;;
17214;SDS011;8723;51.502;6.918;2024-02-16T22:07:32;44.17;;;39.85;;
17214;SDS011;8723;51.502;6.918;2024-02-16T22:09:59;43.70;;;39.28;;
17214;SDS011;8723;51.502;6.918;2024-02-16T22:12:27;46.65;;;42.13;;
17214;SDS011;8723;51.502;6.918;2024-02-16T22:14:56;42.85;;;38.58;;
17214;SDS011;8723;51.502;6.918;2024-02-16T22:17:23;47.72;;;42.92;;
17214;SDS011;8723;51.502;6.918;2024-02-16T22:19:50;38.80;;;35.22;;
17214;SDS011;8723;51.502;6.918;2024-02-16T22:22:19;40.53;;;36.63;;
17214;SDS011;8723;51.502;6.918;2024-02-16T22:24:46;43.22;;;38.92;;
17214;SDS011;8723;51.502;6.918;2024-02-16T22:27:14;43.35;;;39.03;;
17214;SDS011;8723;51.502;6.918;2024-02-16T22:29:41;38.22;;;34.58;;
17214;SDS011;8723;51.502;6.918;2024-02-16T22:32:10;39.07;;;35.07;;
17214;SDS011;8723;51.502;6.918;2024-02-16T22:34:37;38.33;;;34.63;;
17214;SDS011;8723;51.502;6.918;2024-02-16T22:37:04;40.60;;;36.63;;
17214;SDS011;8723;51.502;6.918;2024-02-16T22:39:31;38.92;;;35.25;;
17214;SDS011;8723;51.502;6.918;2024-02-16T22:41:58;41.65;;;37.60;;
17214;SDS011;8723;51.502;6.918;2024-02-16T22:44:25;40.40;;;36.63;;
17214;SDS011;8723;51.502;6.918;2024-02-16T22:46:52;42.97;;;38.58;;
17214;SDS011;8723;51.502;6.918;2024-02-16T22:49:21;38.20;;;34.60;;
17214;SDS011;8723;51.502;6.918;2024-02-16T22:51:48;36.80;;;33.10;;
17214;SDS011;8723;51.502;6.918;2024-02-16T22:54:15;36.78;;;33.20;;
17214;SDS011;8723;51.502;6.918;2024-02-16T22:56:42;32.23;;;29.03;;
17214;SDS011;8723;51.502;6.918;2024-02-16T22:59:09;32.28;;;28.92;;
17214;SDS011;8723;51.502;6.918;2024-02-16T23:01:37;31.83;;;28.63;;
17214;SDS011;8723;51.502;6.918;2024-02-16T23:04:04;31.02;;;27.92;;
17214;SDS011;8723;51.502;6.918;2024-02-16T23:06:34;33.53;;;30.20;;
17214;SDS011;8723;51.502;6.918;2024-02-16T23:09:02;33.83;;;30.42;;
17214;SDS011;8723;51.502;6.918;2024-02-16T23:11:33;31.55;;;28.35;;
17214;SDS011;8723;51.502;6.918;2024-02-16T23:14:00;31.77;;;28.48;;
17214;SDS011;8723;51.502;6.918;2024-02-16T23:16:27;31.30;;;28.33;;
17214;SDS011;8723;51.502;6.918;2024-02-16T23:18:55;35.38;;;31.88;;
17214;SDS011;8723;51.502;6.918;2024-02-16T23:21:22;34.22;;;30.90;;
17214;SDS011;8723;51.502;6.918;2024-02-16T23:23:51;34.45;;;31.02;;
17214;SDS011;8723;51.502;6.918;2024-02-16T23:26:19;37.25;;;33.42;;
17214;SDS011;8723;51.502;6.918;2024-02-16T23:28:46;36.33;;;32.83;;
17214;SDS011;8723;51.502;6.918;2024-02-16T23:31:14;32.10;;;29.00;;
17214;SDS011;8723;51.502;6.918;2024-02-16T23:33:43;35.30;;;31.88;;
17214;SDS011;8723;51.502;6.918;2024-02-16T23:36:10;32.55;;;29.27;;
17214;SDS011;8723;51.502;6.918;2024-02-16T23:38:40;35.90;;;32.20;;
17214;SDS011;8723;51.502;6.918;2024-02-16T23:41:08;34.10;;;30.60;;
17214;SDS011;8723;51.502;6.918;2024-02-16T23:43:35;38.78;;;34.78;;
17214;SDS011;8723;51.502;6.918;2024-02-16T23:46:03;38.42;;;34.47;;
17214;SDS011;8723;51.502;6.918;2024-02-16T23:48:32;35.78;;;32.30;;
17214;SDS011;8723;51.502;6.918;2024-02-16T23:50:59;35.58;;;31.95;;
17214;SDS011;8723;51.502;6.918;2024-02-16T23:53:26;36.57;;;32.97;;
17214;SDS011;8723;51.502;6.918;2024-02-16T23:55:53;36.08;;;32.38;;
17214;SDS011;8723;51.502;6.918;2024-02-16T23:58:22;36.58;;;32.28;;
